createdAt,value
2023-01-29T00:02:06.433Z,100.00
2023-01-29T00:04:33.373Z,100.00
2023-01-29T00:07:00.218Z,100.00
2023-01-29T00:09:28.114Z,100.00
2023-01-29T00:11:54.748Z,100.00
2023-01-29T00:14:21.570Z,100.00
2023-01-29T00:16:48.180Z,100.00
2023-01-29T00:19:14.900Z,100.00
2023-01-29T00:21:41.560Z,100.00
2023-01-29T00:24:08.290Z,100.00
2023-01-29T00:26:35.354Z,100.00
2023-01-29T00:29:02.671Z,100.00
2023-01-29T00:31:29.361Z,100.00
2023-01-29T00:33:56.318Z,100.00
2023-01-29T00:36:23.440Z,100.00
2023-01-29T00:38:58.886Z,100.00
2023-01-29T00:41:52.045Z,100.00
2023-01-29T00:44:37.159Z,100.00
2023-01-29T00:47:04.794Z,100.00
2023-01-29T00:49:31.498Z,100.00
2023-01-29T00:52:17.267Z,100.00
2023-01-29T00:54:43.854Z,100.00
2023-01-29T00:57:10.563Z,100.00
2023-01-29T00:59:37.495Z,100.00
2023-01-29T01:02:22.566Z,100.00
2023-01-29T01:04:49.238Z,100.00
2023-01-29T01:07:15.842Z,100.00
2023-01-29T01:10:01.105Z,100.00
2023-01-29T01:12:29.028Z,100.00
2023-01-29T01:14:55.770Z,100.00
2023-01-29T01:17:22.717Z,100.00
2023-01-29T01:19:49.488Z,100.00
2023-01-29T01:22:16.374Z,100.00
2023-01-29T01:24:44.100Z,100.00
2023-01-29T01:27:10.825Z,100.00
2023-01-29T01:29:37.528Z,100.00
2023-01-29T01:32:04.517Z,100.00
2023-01-29T01:34:31.284Z,100.00
2023-01-29T01:36:57.872Z,100.00
2023-01-29T01:39:25.407Z,100.00
2023-01-29T01:41:53.684Z,100.00
2023-01-29T01:44:55.897Z,100.00
2023-01-29T01:47:31.366Z,100.00
2023-01-29T01:50:06.655Z,100.00
2023-01-29T01:52:34.254Z,100.00
2023-01-29T01:55:01.211Z,100.00
2023-01-29T01:57:31.063Z,100.00
2023-01-29T02:00:10.000Z,100.00
2023-01-29T02:03:01.021Z,100.00
2023-01-29T02:05:50.130Z,100.00
2023-01-29T02:08:42.895Z,100.00
2023-01-29T02:11:10.269Z,100.00
2023-01-29T02:13:36.978Z,100.00
2023-01-29T02:16:03.720Z,100.00
2023-01-29T02:18:30.349Z,100.00
2023-01-29T02:21:03.070Z,100.00
2023-01-29T02:24:05.271Z,100.00
2023-01-29T02:26:53.910Z,100.00
2023-01-29T02:29:34.449Z,100.00
2023-01-29T02:32:21.099Z,100.00
2023-01-29T02:35:32.119Z,100.00
2023-01-29T02:38:06.030Z,100.00
2023-01-29T02:40:40.992Z,100.00
2023-01-29T02:43:19.705Z,100.00
2023-01-29T02:45:49.355Z,100.00
2023-01-29T02:48:22.963Z,100.00
2023-01-29T02:50:58.899Z,100.00
2023-01-29T02:53:36.330Z,100.00
2023-01-29T02:56:10.516Z,100.00
2023-01-29T02:58:46.209Z,100.00
2023-01-29T03:01:20.756Z,100.00
2023-01-29T03:03:55.607Z,100.00
2023-01-29T03:06:29.858Z,100.00
2023-01-29T03:08:58.989Z,100.00
2023-01-29T03:11:34.054Z,100.00
2023-01-29T03:14:08.878Z,100.00
2023-01-29T03:16:51.919Z,100.00
2023-01-29T03:19:18.913Z,100.00
2023-01-29T03:22:00.183Z,100.00
2023-01-29T03:25:00.426Z,100.00
2023-01-29T03:27:57.433Z,100.00
2023-01-29T03:30:46.783Z,100.00
2023-01-29T03:33:40.752Z,100.00
2023-01-29T03:36:38.193Z,100.00
2023-01-29T03:39:07.098Z,100.00
2023-01-29T03:41:58.561Z,100.00
2023-01-29T03:44:33.820Z,100.00
2023-01-29T03:47:26.179Z,100.00
2023-01-29T03:50:02.794Z,100.00
2023-01-29T03:52:51.951Z,100.00
2023-01-29T03:55:55.355Z,100.00
2023-01-29T03:58:22.297Z,100.00
2023-01-29T04:01:21.253Z,100.00
2023-01-29T04:04:21.849Z,100.00
2023-01-29T04:06:53.070Z,100.00
2023-01-29T04:09:27.667Z,100.00
2023-01-29T04:12:02.176Z,100.00
2023-01-29T04:14:31.977Z,100.00
2023-01-29T04:17:03.529Z,100.00
2023-01-29T04:19:50.647Z,100.00
2023-01-29T04:22:33.781Z,100.00
2023-01-29T04:25:15.486Z,100.00
2023-01-29T04:27:45.997Z,100.00
2023-01-29T04:30:51.659Z,100.00
2023-01-29T04:33:18.336Z,100.00
2023-01-29T04:36:07.205Z,100.00
2023-01-29T04:42:11.004Z,100.00
2023-01-29T04:44:50.163Z,100.00
2023-01-29T04:47:25.785Z,100.00
2023-01-29T04:50:13.723Z,100.00
2023-01-29T04:52:46.647Z,100.00
2023-01-29T04:55:32.081Z,100.00
2023-01-29T04:58:04.698Z,100.00
2023-01-29T05:00:36.842Z,100.00
2023-01-29T05:03:03.963Z,100.00
2023-01-29T05:05:30.903Z,100.00
2023-01-29T05:07:59.115Z,100.00
2023-01-29T05:10:26.805Z,100.00
2023-01-29T05:13:00.436Z,100.00
2023-01-29T05:15:33.506Z,100.00
2023-01-29T05:18:03.116Z,100.00
2023-01-29T05:20:33.401Z,100.00
2023-01-29T05:23:00.003Z,100.00
2023-01-29T05:25:32.315Z,100.00
2023-01-29T05:28:11.893Z,100.00
2023-01-29T05:30:39.926Z,100.00
2023-01-29T05:33:15.325Z,100.00
2023-01-29T05:35:42.368Z,100.00
2023-01-29T05:38:09.063Z,100.00
2023-01-29T05:40:36.422Z,100.00
2023-01-29T05:43:03.193Z,100.00
2023-01-29T05:45:29.909Z,100.00
2023-01-29T05:47:58.089Z,100.00
2023-01-29T05:50:25.935Z,100.00
2023-01-29T05:52:59.903Z,100.00
2023-01-29T05:55:29.402Z,100.00
2023-01-29T05:57:56.285Z,100.00
2023-01-29T06:00:23.131Z,100.00
2023-01-29T06:02:49.887Z,100.00
2023-01-29T06:05:16.621Z,100.00
2023-01-29T06:07:45.339Z,100.00
2023-01-29T06:10:17.301Z,100.00
2023-01-29T06:12:44.764Z,100.00
2023-01-29T06:15:12.467Z,100.00
2023-01-29T06:17:39.059Z,100.00
2023-01-29T06:20:06.293Z,100.00
2023-01-29T06:22:33.897Z,100.00
2023-01-29T06:25:00.546Z,100.00
2023-01-29T06:27:27.289Z,100.00
2023-01-29T06:29:53.887Z,100.00
2023-01-29T06:32:20.493Z,100.00
2023-01-29T06:34:49.448Z,100.00
2023-01-29T06:37:16.375Z,100.00
2023-01-29T06:39:42.986Z,100.00
2023-01-29T06:42:10.087Z,100.00
2023-01-29T06:44:37.035Z,100.00
2023-01-29T06:47:03.689Z,100.00
2023-01-29T06:49:30.306Z,100.00
2023-01-29T06:51:57.408Z,100.00
2023-01-29T06:54:24.134Z,100.00
2023-01-29T06:56:51.966Z,100.00
2023-01-29T06:59:18.551Z,100.00
2023-01-29T07:01:45.197Z,100.00
2023-01-29T07:04:11.838Z,100.00
2023-01-29T07:06:38.490Z,100.00
2023-01-29T07:09:05.362Z,100.00
2023-01-29T07:11:32.205Z,100.00
2023-01-29T07:13:58.789Z,100.00
2023-01-29T07:16:26.430Z,100.00
2023-01-29T07:18:53.248Z,100.00
2023-01-29T07:21:19.881Z,100.00
2023-01-29T07:23:46.557Z,100.00
2023-01-29T07:26:13.249Z,100.00
2023-01-29T07:28:40.996Z,100.00
2023-01-29T07:31:10.139Z,100.00
2023-01-29T07:33:36.766Z,100.00
2023-01-29T07:36:07.833Z,100.00
2023-01-29T07:38:34.508Z,100.00
2023-01-29T07:41:02.881Z,100.00
2023-01-29T07:43:30.248Z,100.00
2023-01-29T07:45:57.053Z,100.00
2023-01-29T07:48:23.711Z,100.00
2023-01-29T07:50:57.248Z,100.00
2023-01-29T07:53:24.022Z,100.00
2023-01-29T07:55:50.762Z,100.00
2023-01-29T07:58:17.514Z,100.00
2023-01-29T08:00:44.294Z,100.00
2023-01-29T08:03:17.290Z,100.00
2023-01-29T08:05:44.909Z,100.00
2023-01-29T08:08:12.075Z,100.00
2023-01-29T08:10:39.727Z,100.00
2023-01-29T08:13:07.136Z,100.00
2023-01-29T08:15:34.291Z,100.00
2023-01-29T08:18:02.429Z,100.00
2023-01-29T08:20:29.118Z,100.00
2023-01-29T08:23:05.904Z,100.00
2023-01-29T08:25:33.609Z,100.00
2023-01-29T08:28:01.128Z,100.00
2023-01-29T08:30:30.244Z,100.00
2023-01-29T08:32:56.866Z,100.00
2023-01-29T08:35:24.480Z,100.00
2023-01-29T08:37:59.439Z,100.00
2023-01-29T08:40:31.948Z,100.00
2023-01-29T08:43:09.029Z,100.00
2023-01-29T08:45:38.570Z,100.00
2023-01-29T08:48:06.054Z,100.00
2023-01-29T08:50:34.831Z,100.00
2023-01-29T08:53:04.428Z,100.00
2023-01-29T08:55:31.007Z,100.00
2023-01-29T08:57:57.584Z,100.00
2023-01-29T09:00:24.598Z,100.00
2023-01-29T09:02:51.222Z,100.00
2023-01-29T09:05:18.153Z,100.00
2023-01-29T09:07:45.073Z,100.00
2023-01-29T09:10:12.339Z,100.00
2023-01-29T09:12:39.053Z,100.00
2023-01-29T09:15:06.204Z,100.00
2023-01-29T09:17:32.767Z,100.00
2023-01-29T09:19:59.390Z,100.00
2023-01-29T09:22:25.959Z,100.00
2023-01-29T09:24:52.542Z,100.00
2023-01-29T09:27:19.277Z,100.00
2023-01-29T09:29:45.838Z,96.47
2023-01-29T09:32:12.472Z,73.42
2023-01-29T09:34:39.082Z,56.55
2023-01-29T09:37:06.499Z,47.97
2023-01-29T09:39:33.212Z,45.17
2023-01-29T09:42:22.349Z,40.96
2023-01-29T09:45:20.991Z,39.94
2023-01-29T09:47:48.816Z,37.29
2023-01-29T09:50:26.191Z,37.60
2023-01-29T09:52:58.825Z,39.21
2023-01-29T09:55:37.126Z,36.96
2023-01-29T09:58:19.087Z,33.96
2023-01-29T10:00:58.606Z,36.69
2023-01-29T10:03:37.298Z,40.22
2023-01-29T10:06:28.199Z,43.36
2023-01-29T10:09:26.007Z,42.54
2023-01-29T10:12:24.999Z,46.62
2023-01-29T10:15:29.395Z,49.02
2023-01-29T10:18:05.647Z,55.03
2023-01-29T10:20:50.252Z,60.19
2023-01-29T10:23:33.493Z,68.03
2023-01-29T10:26:01.145Z,67.65
2023-01-29T10:28:47.653Z,73.67
2023-01-29T10:31:21.061Z,80.71
2023-01-29T10:34:02.030Z,79.52
2023-01-29T10:36:57.034Z,75.44
2023-01-29T10:39:26.705Z,80.18
2023-01-29T10:42:05.707Z,73.15
2023-01-29T10:45:00.511Z,56.60
2023-01-29T10:47:36.385Z,56.00
2023-01-29T10:50:20.740Z,58.33
2023-01-29T10:52:57.991Z,62.56
2023-01-29T10:55:40.371Z,67.83
2023-01-29T10:58:16.339Z,68.95
2023-01-29T11:00:43.063Z,73.39
2023-01-29T11:03:27.602Z,78.90
2023-01-29T11:06:32.894Z,82.92
2023-01-29T11:08:59.409Z,84.06
2023-01-29T11:11:41.941Z,86.11
2023-01-29T11:14:29.927Z,91.21
2023-01-29T11:16:56.755Z,90.60
2023-01-29T11:19:41.700Z,93.63
2023-01-29T11:22:17.946Z,90.08
2023-01-29T11:24:44.597Z,95.30
2023-01-29T11:27:25.938Z,96.19
2023-01-29T11:29:53.947Z,96.99
2023-01-29T11:32:23.591Z,100.00
2023-01-29T11:35:02.261Z,100.00
2023-01-29T11:37:37.570Z,100.00
2023-01-29T11:40:19.561Z,100.00
2023-01-29T11:42:47.064Z,100.00
2023-01-29T11:45:22.725Z,100.00
2023-01-29T11:47:56.958Z,100.00
2023-01-29T11:50:26.514Z,100.00
2023-01-29T11:52:53.687Z,100.00
2023-01-29T11:55:24.561Z,100.00
2023-01-29T11:57:54.392Z,100.00
2023-01-29T12:00:27.583Z,100.00
2023-01-29T12:03:02.438Z,100.00
2023-01-29T12:05:29.212Z,100.00
2023-01-29T12:07:57.756Z,100.00
2023-01-29T12:10:35.844Z,100.00
2023-01-29T12:13:05.183Z,100.00
2023-01-29T12:15:31.854Z,100.00
2023-01-29T12:18:04.876Z,100.00
2023-01-29T12:20:51.594Z,100.00
2023-01-29T12:23:36.617Z,100.00
2023-01-29T12:26:12.884Z,100.00
2023-01-29T12:28:44.779Z,100.00
2023-01-29T12:31:23.210Z,100.00
2023-01-29T12:34:10.885Z,100.00
2023-01-29T12:36:53.125Z,100.00
2023-01-29T12:39:20.937Z,100.00
2023-01-29T12:42:05.058Z,100.00
2023-01-29T12:44:59.443Z,100.00
2023-01-29T12:47:48.553Z,100.00
2023-01-29T12:50:21.075Z,100.00
2023-01-29T12:52:54.074Z,100.00
2023-01-29T12:55:23.026Z,100.00
2023-01-29T12:58:12.675Z,100.00
2023-01-29T13:00:43.327Z,100.00
2023-01-29T13:03:43.154Z,100.00
2023-01-29T13:06:15.681Z,100.00
2023-01-29T13:08:51.537Z,100.00
2023-01-29T13:11:33.656Z,100.00
2023-01-29T13:14:09.329Z,100.00
2023-01-29T13:16:45.372Z,100.00
2023-01-29T13:19:20.832Z,100.00
2023-01-29T13:21:48.685Z,100.00
2023-01-29T13:24:18.479Z,100.00
2023-01-29T13:26:49.284Z,100.00
2023-01-29T13:29:30.284Z,100.00
2023-01-29T13:31:59.395Z,100.00
2023-01-29T13:34:25.967Z,100.00
2023-01-29T13:36:56.324Z,100.00
2023-01-29T13:39:52.153Z,100.00
2023-01-29T13:42:44.019Z,100.00
2023-01-29T13:45:22.723Z,100.00
2023-01-29T13:47:51.402Z,100.00
2023-01-29T13:50:38.258Z,100.00
2023-01-29T13:53:08.239Z,100.00
2023-01-29T13:55:39.651Z,100.00
2023-01-29T13:58:13.999Z,100.00
2023-01-29T14:00:40.597Z,100.00
2023-01-29T14:03:11.779Z,100.00
2023-01-29T14:05:54.290Z,100.00
2023-01-29T14:08:36.060Z,100.00
2023-01-29T14:11:15.276Z,100.00
2023-01-29T14:13:43.773Z,100.00
2023-01-29T14:16:10.486Z,100.00
2023-01-29T14:18:47.019Z,100.00
2023-01-29T14:21:16.604Z,100.00
2023-01-29T14:24:09.351Z,100.00
2023-01-29T14:26:38.977Z,100.00
2023-01-29T14:29:25.440Z,100.00
2023-01-29T14:32:08.538Z,100.00
2023-01-29T14:34:41.992Z,100.00
2023-01-29T14:37:14.832Z,100.00
2023-01-29T14:39:46.088Z,100.00
2023-01-29T14:42:26.995Z,100.00
2023-01-29T14:45:22.010Z,100.00
2023-01-29T14:47:48.694Z,100.00
2023-01-29T14:50:33.043Z,100.00
2023-01-29T14:53:12.869Z,100.00
2023-01-29T14:55:52.901Z,100.00
2023-01-29T14:58:33.092Z,100.00
2023-01-29T15:01:02.090Z,100.00
2023-01-29T15:03:43.015Z,100.00
2023-01-29T15:06:16.297Z,100.00
2023-01-29T15:08:53.697Z,100.00
2023-01-29T15:11:35.765Z,100.00
2023-01-29T15:14:25.029Z,100.00
2023-01-29T15:17:17.225Z,100.00
2023-01-29T15:19:48.429Z,100.00
2023-01-29T15:22:23.460Z,100.00
2023-01-29T15:25:07.614Z,100.00
2023-01-29T15:27:34.655Z,100.00
2023-01-29T15:30:03.727Z,100.00
2023-01-29T15:32:37.126Z,100.00
2023-01-29T15:35:19.434Z,100.00
2023-01-29T15:37:59.184Z,100.00
2023-01-29T15:40:26.821Z,100.00
2023-01-29T15:42:53.378Z,100.00
2023-01-29T15:45:27.384Z,100.00
2023-01-29T15:48:17.325Z,100.00
2023-01-29T15:50:45.207Z,100.00
2023-01-29T15:53:19.686Z,100.00
2023-01-29T15:55:47.625Z,100.00
2023-01-29T15:58:28.267Z,100.00
2023-01-29T16:00:56.779Z,100.00
2023-01-29T16:03:26.367Z,100.00
2023-01-29T16:05:54.422Z,100.00
2023-01-29T16:08:23.410Z,100.00
2023-01-29T16:10:55.319Z,100.00
2023-01-29T16:13:29.085Z,100.00
2023-01-29T16:16:01.238Z,100.00
2023-01-29T16:18:41.085Z,100.00
2023-01-29T16:21:22.749Z,100.00
2023-01-29T16:23:53.949Z,100.00
2023-01-29T16:26:25.648Z,100.00
2023-01-29T16:28:52.690Z,100.00
2023-01-29T16:31:27.216Z,100.00
2023-01-29T16:33:56.710Z,100.00
2023-01-29T16:36:26.589Z,100.00
2023-01-29T16:39:01.954Z,100.00
2023-01-29T16:41:31.812Z,100.00
2023-01-29T16:44:04.149Z,100.00
2023-01-29T16:46:35.576Z,100.00
2023-01-29T16:49:02.673Z,100.00
2023-01-29T16:51:36.741Z,100.00
2023-01-29T16:54:24.947Z,100.00
2023-01-29T16:57:02.021Z,100.00
2023-01-29T16:59:39.528Z,100.00
2023-01-29T17:02:22.405Z,100.00
2023-01-29T17:04:51.341Z,100.00
2023-01-29T17:07:21.392Z,100.00
2023-01-29T17:09:54.255Z,100.00
2023-01-29T17:12:25.395Z,100.00
2023-01-29T17:15:00.437Z,100.00
2023-01-29T17:17:31.341Z,100.00
2023-01-29T17:20:02.569Z,100.00
2023-01-29T17:22:29.235Z,100.00
2023-01-29T17:24:55.824Z,100.00
2023-01-29T17:27:23.104Z,100.00
2023-01-29T17:29:49.775Z,100.00
2023-01-29T17:32:18.785Z,100.00
2023-01-29T17:34:46.894Z,100.00
2023-01-29T17:37:15.735Z,100.00
2023-01-29T17:39:43.941Z,100.00
2023-01-29T17:42:13.983Z,100.00
2023-01-29T17:44:43.276Z,100.00
2023-01-29T17:47:15.125Z,100.00
2023-01-29T17:49:42.752Z,100.00
2023-01-29T17:52:09.712Z,100.00
2023-01-29T17:54:36.525Z,100.00
2023-01-29T17:57:03.212Z,100.00
2023-01-29T17:59:32.060Z,100.00
2023-01-29T18:01:59.285Z,100.00
2023-01-29T18:04:26.415Z,100.00
2023-01-29T18:06:53.436Z,100.00
2023-01-29T18:09:21.851Z,100.00
2023-01-29T18:11:49.912Z,100.00
2023-01-29T18:14:17.384Z,100.00
2023-01-29T18:16:45.041Z,100.00
2023-01-29T18:19:31.187Z,100.00
2023-01-29T18:21:57.795Z,100.00
2023-01-29T18:24:26.519Z,100.00
2023-01-29T18:26:53.279Z,100.00
2023-01-29T18:29:19.936Z,100.00
2023-01-29T18:31:49.174Z,100.00
2023-01-29T18:34:15.916Z,100.00
2023-01-29T18:36:46.636Z,100.00
2023-01-29T18:39:14.625Z,100.00
2023-01-29T18:41:41.265Z,100.00
2023-01-29T18:44:07.936Z,100.00
2023-01-29T18:46:34.576Z,100.00
2023-01-29T18:49:01.179Z,100.00
2023-01-29T18:51:27.756Z,100.00
2023-01-29T18:53:54.381Z,100.00
2023-01-29T18:56:20.993Z,100.00
2023-01-29T18:58:52.167Z,100.00
2023-01-29T19:01:22.404Z,100.00
2023-01-29T19:03:49.057Z,100.00
2023-01-29T19:06:15.659Z,100.00
2023-01-29T19:08:43.094Z,100.00
2023-01-29T19:11:12.324Z,100.00
2023-01-29T19:13:39.106Z,100.00
2023-01-29T19:16:07.907Z,100.00
2023-01-29T19:18:34.533Z,100.00
2023-01-29T19:21:07.511Z,100.00
2023-01-29T19:23:34.185Z,100.00
2023-01-29T19:26:00.747Z,100.00
2023-01-29T19:28:27.359Z,100.00
2023-01-29T19:30:57.917Z,100.00
2023-01-29T19:33:25.689Z,100.00
2023-01-29T19:35:52.326Z,100.00
2023-01-29T19:38:21.221Z,100.00
2023-01-29T19:40:48.469Z,100.00
2023-01-29T19:43:17.569Z,100.00
2023-01-29T19:45:50.407Z,100.00
2023-01-29T19:48:21.535Z,100.00
2023-01-29T19:50:52.841Z,100.00
2023-01-29T19:53:19.457Z,100.00
2023-01-29T19:55:46.125Z,100.00
2023-01-29T19:58:12.710Z,100.00
2023-01-29T20:00:39.588Z,100.00
2023-01-29T20:03:06.240Z,100.00
2023-01-29T20:05:35.919Z,100.00
2023-01-29T20:08:02.501Z,100.00
2023-01-29T20:10:29.081Z,100.00
2023-01-29T20:12:55.686Z,100.00
2023-01-29T20:15:22.566Z,100.00
2023-01-29T20:17:49.143Z,100.00
2023-01-29T20:20:16.902Z,100.00
2023-01-29T20:22:43.918Z,100.00
2023-01-29T20:25:13.572Z,100.00
2023-01-29T20:27:40.667Z,100.00
2023-01-29T20:30:08.240Z,100.00
2023-01-29T20:32:35.333Z,100.00
2023-01-29T20:35:02.180Z,100.00
2023-01-29T20:37:28.781Z,100.00
2023-01-29T20:39:55.415Z,100.00
2023-01-29T20:42:22.107Z,100.00
2023-01-29T20:44:48.673Z,100.00
2023-01-29T20:47:15.473Z,100.00
2023-01-29T20:49:42.043Z,100.00
2023-01-29T20:52:10.285Z,100.00
2023-01-29T20:54:37.181Z,100.00
2023-01-29T20:57:03.910Z,100.00
2023-01-29T20:59:31.444Z,100.00
2023-01-29T21:01:58.104Z,100.00
2023-01-29T21:04:24.879Z,100.00
2023-01-29T21:06:51.553Z,100.00
2023-01-29T21:09:18.148Z,100.00
2023-01-29T21:11:45.094Z,100.00
2023-01-29T21:14:11.814Z,100.00
2023-01-29T21:16:38.471Z,100.00
2023-01-29T21:19:05.084Z,100.00
2023-01-29T21:21:31.749Z,100.00
2023-01-29T21:23:58.420Z,100.00
2023-01-29T21:26:25.102Z,100.00
2023-01-29T21:28:51.701Z,100.00
2023-01-29T21:31:18.561Z,100.00
2023-01-29T21:33:45.195Z,100.00
2023-01-29T21:36:11.960Z,100.00
2023-01-29T21:38:39.620Z,100.00
2023-01-29T21:41:09.598Z,100.00
2023-01-29T21:43:37.261Z,100.00
2023-01-29T21:46:11.300Z,100.00
2023-01-29T21:48:39.319Z,100.00
2023-01-29T21:51:06.408Z,100.00
2023-01-29T21:53:33.151Z,100.00
2023-01-29T21:56:01.744Z,100.00
2023-01-29T21:58:28.876Z,100.00
2023-01-29T22:00:55.511Z,100.00
2023-01-29T22:03:22.366Z,100.00
2023-01-29T22:05:50.073Z,100.00
2023-01-29T22:08:17.939Z,100.00
2023-01-29T22:10:44.777Z,100.00
2023-01-29T22:13:11.536Z,100.00
2023-01-29T22:15:38.106Z,100.00
2023-01-29T22:18:04.799Z,100.00
2023-01-29T22:20:31.678Z,100.00
2023-01-29T22:23:00.256Z,100.00
2023-01-29T22:25:27.548Z,100.00
2023-01-29T22:27:54.297Z,100.00
2023-01-29T22:30:23.210Z,100.00
2023-01-29T22:32:50.503Z,100.00
2023-01-29T22:35:17.574Z,100.00
2023-01-29T22:37:45.107Z,100.00
2023-01-29T22:40:12.882Z,100.00
2023-01-29T22:42:39.510Z,100.00
2023-01-29T22:45:07.389Z,100.00
2023-01-29T22:47:33.999Z,100.00
2023-01-29T22:50:00.608Z,100.00
2023-01-29T22:52:28.368Z,100.00
2023-01-29T22:54:55.049Z,100.00
2023-01-29T22:57:21.728Z,100.00
2023-01-29T22:59:48.349Z,100.00
2023-01-29T23:02:15.006Z,100.00
2023-01-29T23:04:41.763Z,100.00
2023-01-29T23:07:08.370Z,100.00
2023-01-29T23:09:34.963Z,100.00
2023-01-29T23:12:01.582Z,100.00
2023-01-29T23:14:28.173Z,100.00
2023-01-29T23:16:54.803Z,100.00
2023-01-29T23:19:21.477Z,100.00
2023-01-29T23:21:48.073Z,100.00
2023-01-29T23:24:15.240Z,100.00
2023-01-29T23:27:00.153Z,100.00
2023-01-29T23:29:26.817Z,100.00
2023-01-29T23:31:53.410Z,100.00
2023-01-29T23:34:20.478Z,100.00
2023-01-29T23:36:47.509Z,100.00
2023-01-29T23:39:14.106Z,100.00
2023-01-29T23:41:40.690Z,100.00
2023-01-29T23:44:07.316Z,100.00
2023-01-29T23:46:33.974Z,100.00
2023-01-29T23:49:00.745Z,100.00
2023-01-29T23:51:27.397Z,100.00
2023-01-29T23:53:54.265Z,100.00
2023-01-29T23:56:20.853Z,100.00
2023-01-29T23:58:47.517Z,100.00
